createdAt,value
2023-04-25T00:00:58.640Z,26.98
2023-04-25T00:02:19.582Z,31.10
2023-04-25T00:03:40.376Z,30.67
2023-04-25T00:05:01.652Z,33.13
2023-04-25T00:06:22.572Z,28.65
2023-04-25T00:07:43.707Z,32.35
2023-04-25T00:09:07.165Z,28.90
2023-04-25T00:10:27.731Z,35.28
2023-04-25T00:11:48.790Z,33.58
2023-04-25T00:13:09.572Z,28.50
2023-04-25T00:14:30.287Z,37.63
2023-04-25T00:15:51.080Z,35.88
2023-04-25T00:17:11.880Z,29.67
2023-04-25T00:18:32.827Z,32.90
2023-04-25T00:19:53.828Z,29.17
2023-04-25T00:21:14.586Z,34.08
2023-04-25T00:22:35.908Z,25.73
2023-04-25T00:23:56.979Z,21.58
2023-04-25T00:25:19.387Z,23.38
2023-04-25T00:26:40.060Z,28.40
2023-04-25T00:28:01.021Z,26.80
2023-04-25T00:29:21.759Z,34.05
2023-04-25T00:30:43.741Z,25.73
2023-04-25T00:32:04.852Z,30.88
2023-04-25T00:33:25.676Z,30.95
2023-04-25T00:34:46.891Z,20.70
2023-04-25T00:36:08.793Z,24.23
2023-04-25T00:37:29.312Z,27.73
2023-04-25T00:38:50.183Z,30.92
2023-04-25T00:40:11.858Z,21.20
2023-04-25T00:41:34.244Z,30.65
2023-04-25T00:42:55.636Z,20.58
2023-04-25T00:44:16.886Z,18.90
2023-04-25T00:45:40.124Z,20.35
2023-04-25T00:47:02.866Z,23.70
2023-04-25T00:48:24.081Z,26.73
2023-04-25T00:49:45.062Z,23.58
2023-04-25T00:51:05.776Z,27.30
2023-04-25T00:52:26.682Z,22.35
2023-04-25T00:53:48.499Z,30.13
2023-04-25T00:55:10.591Z,27.85
2023-04-25T00:56:33.071Z,27.25
2023-04-25T00:57:53.595Z,22.80
2023-04-25T00:59:16.038Z,29.33
2023-04-25T01:00:38.789Z,22.17
2023-04-25T01:01:59.980Z,22.08
2023-04-25T01:03:21.569Z,29.27
2023-04-25T01:04:42.832Z,30.65
2023-04-25T01:06:04.204Z,28.80
2023-04-25T01:07:25.513Z,24.00
2023-04-25T01:08:46.433Z,23.58
2023-04-25T01:10:09.133Z,31.67
2023-04-25T01:11:30.155Z,26.50
2023-04-25T01:12:52.509Z,19.13
2023-04-25T01:14:13.452Z,24.90
2023-04-25T01:15:34.160Z,20.20
2023-04-25T01:16:55.585Z,28.40
2023-04-25T01:18:16.940Z,22.40
2023-04-25T01:19:38.275Z,21.10
2023-04-25T01:21:07.794Z,21.70
2023-04-25T01:22:28.417Z,20.00
2023-04-25T01:23:49.806Z,21.90
2023-04-25T01:26:32.279Z,17.90
2023-04-25T01:29:13.759Z,21.88
2023-04-25T01:30:35.430Z,18.50
2023-04-25T01:31:56.393Z,12.82
2023-04-25T01:33:18.076Z,20.38
2023-04-25T01:34:39.046Z,27.48
2023-04-25T01:36:00.193Z,23.88
2023-04-25T01:37:22.394Z,19.88
2023-04-25T01:38:43.176Z,17.92
2023-04-25T01:40:04.865Z,19.67
2023-04-25T01:41:25.702Z,28.13
2023-04-25T01:42:47.318Z,16.55
2023-04-25T01:44:08.242Z,21.85
2023-04-25T01:45:29.132Z,22.65
2023-04-25T01:46:49.991Z,21.73
2023-04-25T01:48:12.650Z,21.15
2023-04-25T01:49:33.510Z,25.88
2023-04-25T01:50:54.376Z,22.42
2023-04-25T01:52:15.273Z,14.38
2023-04-25T01:53:37.390Z,23.45
2023-04-25T01:55:00.514Z,22.80
2023-04-25T01:56:21.617Z,20.63
2023-04-25T01:57:42.097Z,22.90
2023-04-25T01:59:02.857Z,20.15
2023-04-25T02:00:23.811Z,17.95
2023-04-25T02:01:44.772Z,17.65
2023-04-25T02:03:06.344Z,14.27
2023-04-25T02:05:48.425Z,20.05
2023-04-25T02:07:09.549Z,18.90
2023-04-25T02:08:30.728Z,19.55
2023-04-25T02:09:52.988Z,17.27
2023-04-25T02:11:14.111Z,20.38
2023-04-25T02:12:34.864Z,19.77
2023-04-25T02:13:55.733Z,23.02
2023-04-25T02:15:16.920Z,14.13
2023-04-25T02:16:37.773Z,19.80
2023-04-25T02:17:58.761Z,24.58
2023-04-25T02:19:19.838Z,19.08
2023-04-25T02:20:40.726Z,29.33
2023-04-25T02:22:01.779Z,27.98
2023-04-25T02:23:22.698Z,14.52
2023-04-25T02:24:43.881Z,15.23
2023-04-25T02:26:05.855Z,16.13
2023-04-25T02:27:26.483Z,13.15
2023-04-25T02:28:47.210Z,13.10
2023-04-25T02:30:09.536Z,16.73
2023-04-25T02:31:30.871Z,22.13
2023-04-25T02:32:51.858Z,24.80
2023-04-25T02:34:12.757Z,18.38
2023-04-25T02:35:33.776Z,21.85
2023-04-25T02:36:54.679Z,19.88
2023-04-25T02:38:15.806Z,19.85
2023-04-25T02:39:36.568Z,17.75
2023-04-25T02:40:57.450Z,15.43
2023-04-25T02:42:19.512Z,25.90
2023-04-25T02:43:40.289Z,12.02
2023-04-25T02:45:01.300Z,10.90
2023-04-25T02:46:32.268Z,24.27
2023-04-25T02:47:59.393Z,18.05
2023-04-25T02:49:20.219Z,28.02
2023-04-25T02:50:41.062Z,23.30
2023-04-25T02:52:02.051Z,15.85
2023-04-25T02:53:23.009Z,16.83
2023-04-25T02:54:44.374Z,21.65
2023-04-25T02:56:06.050Z,24.17
2023-04-25T02:57:28.344Z,22.95
2023-04-25T02:58:48.772Z,22.48
2023-04-25T03:00:10.930Z,21.77
2023-04-25T03:01:31.388Z,21.05
2023-04-25T03:02:52.366Z,19.80
2023-04-25T03:04:13.321Z,16.10
2023-04-25T03:05:34.354Z,14.05
2023-04-25T03:06:55.365Z,16.52
2023-04-25T03:08:15.788Z,23.57
2023-04-25T03:09:36.762Z,23.75
2023-04-25T03:10:57.639Z,17.38
2023-04-25T03:12:18.633Z,18.25
2023-04-25T03:13:41.061Z,18.10
2023-04-25T03:15:01.729Z,22.27
2023-04-25T03:16:22.981Z,18.25
2023-04-25T03:17:43.622Z,19.52
2023-04-25T03:19:05.072Z,14.38
2023-04-25T03:20:25.997Z,12.98
2023-04-25T03:21:46.881Z,11.77
2023-04-25T03:23:07.817Z,17.02
2023-04-25T03:24:28.649Z,11.30
2023-04-25T03:25:49.669Z,13.10
2023-04-25T03:27:10.801Z,16.92
2023-04-25T03:28:31.367Z,19.42
2023-04-25T03:29:53.395Z,15.63
2023-04-25T03:31:14.125Z,12.25
2023-04-25T03:32:36.063Z,13.93
2023-04-25T03:35:17.372Z,14.82
2023-04-25T03:36:39.798Z,11.50
2023-04-25T03:38:01.732Z,16.98
2023-04-25T03:39:22.846Z,18.13
2023-04-25T03:40:43.762Z,13.77
2023-04-25T03:42:04.868Z,16.40
2023-04-25T03:43:25.479Z,15.57
2023-04-25T03:44:46.396Z,27.60
2023-04-25T03:46:08.740Z,18.85
2023-04-25T03:47:29.597Z,17.05
2023-04-25T03:48:50.980Z,15.77
2023-04-25T03:50:11.974Z,20.02
2023-04-25T03:51:33.013Z,24.33
2023-04-25T03:52:53.971Z,22.10
2023-04-25T03:54:14.795Z,21.30
2023-04-25T03:55:35.630Z,20.08
2023-04-25T03:56:56.719Z,13.25
2023-04-25T03:58:17.439Z,17.13
2023-04-25T03:59:38.188Z,25.00
2023-04-25T04:00:59.199Z,15.95
2023-04-25T04:02:21.577Z,19.85
2023-04-25T04:03:42.609Z,28.17
2023-04-25T04:05:04.829Z,19.63
2023-04-25T04:06:25.949Z,19.45
2023-04-25T04:07:46.904Z,18.98
2023-04-25T04:09:09.661Z,28.77
2023-04-25T04:10:30.580Z,14.77
2023-04-25T04:11:51.297Z,23.65
2023-04-25T04:13:12.098Z,21.92
2023-04-25T04:14:33.011Z,21.17
2023-04-25T04:15:54.376Z,12.38
2023-04-25T04:17:15.073Z,15.80
2023-04-25T04:18:37.240Z,15.70
2023-04-25T04:19:57.997Z,19.40
2023-04-25T04:21:18.642Z,14.55
2023-04-25T04:22:39.619Z,18.58
2023-04-25T04:24:00.495Z,12.57
2023-04-25T04:25:21.470Z,19.83
2023-04-25T04:26:42.225Z,31.08
2023-04-25T04:28:03.418Z,16.42
2023-04-25T04:29:24.305Z,12.50
2023-04-25T04:30:45.394Z,16.63
2023-04-25T04:32:06.325Z,23.23
2023-04-25T04:33:27.066Z,21.25
2023-04-25T04:34:49.308Z,15.10
2023-04-25T04:36:10.093Z,19.42
2023-04-25T04:37:31.074Z,20.15
2023-04-25T04:38:51.522Z,13.02
2023-04-25T04:40:13.017Z,16.20
2023-04-25T04:42:54.622Z,13.85
2023-04-25T04:44:15.505Z,19.15
2023-04-25T04:45:36.268Z,13.70
2023-04-25T04:46:57.197Z,19.48
2023-04-25T04:48:17.870Z,17.70
2023-04-25T04:49:38.734Z,12.98
2023-04-25T04:51:01.550Z,22.52
2023-04-25T04:52:22.090Z,18.40
2023-04-25T04:53:43.004Z,16.77
2023-04-25T04:55:05.033Z,18.27
2023-04-25T04:56:25.980Z,18.17
2023-04-25T04:57:46.994Z,12.85
2023-04-25T04:59:07.841Z,25.23
2023-04-25T05:00:29.706Z,13.70
2023-04-25T05:01:50.684Z,21.83
2023-04-25T05:03:11.631Z,14.32
2023-04-25T05:04:32.488Z,20.08
2023-04-25T05:05:53.077Z,19.50
2023-04-25T05:07:15.205Z,18.10
2023-04-25T05:08:36.084Z,21.45
2023-04-25T05:09:56.536Z,17.57
2023-04-25T05:11:17.468Z,14.63
2023-04-25T05:12:38.492Z,19.63
2023-04-25T05:13:59.252Z,26.33
2023-04-25T05:15:20.220Z,18.50
2023-04-25T05:16:41.693Z,26.58
2023-04-25T05:18:02.518Z,19.05
2023-04-25T05:19:23.716Z,19.42
2023-04-25T05:20:44.515Z,15.13
2023-04-25T05:22:05.503Z,16.08
2023-04-25T05:23:27.711Z,22.30
2023-04-25T05:24:48.536Z,18.63
2023-04-25T05:26:09.410Z,20.38
2023-04-25T05:27:30.338Z,23.40
2023-04-25T05:28:51.175Z,17.25
2023-04-25T05:30:12.622Z,27.08
2023-04-25T05:31:33.455Z,14.27
2023-04-25T05:32:54.175Z,20.45
2023-04-25T05:34:14.957Z,12.17
2023-04-25T05:35:35.711Z,16.38
2023-04-25T05:36:56.853Z,11.98
2023-04-25T05:38:17.518Z,17.08
2023-04-25T05:39:39.859Z,12.70
2023-04-25T05:41:00.955Z,18.25
2023-04-25T05:42:21.568Z,31.08
2023-04-25T05:43:42.451Z,22.00
2023-04-25T05:45:03.927Z,13.05
2023-04-25T05:46:24.525Z,11.93
2023-04-25T05:47:45.508Z,13.18
2023-04-25T05:49:06.556Z,15.00
2023-04-25T05:50:27.673Z,11.55
2023-04-25T05:51:48.382Z,12.82
2023-04-25T05:53:09.322Z,14.23
2023-04-25T05:54:30.354Z,10.82
2023-04-25T05:55:52.825Z,18.83
2023-04-25T05:57:21.662Z,16.77
2023-04-25T05:58:42.582Z,10.63
2023-04-25T06:00:05.436Z,10.80
2023-04-25T06:01:26.299Z,14.50
2023-04-25T06:02:47.131Z,12.80
2023-04-25T06:04:08.208Z,7.80
2023-04-25T06:05:29.797Z,10.93
2023-04-25T06:06:50.837Z,9.63
2023-04-25T06:08:11.958Z,10.07
2023-04-25T06:09:32.800Z,10.25
2023-04-25T06:10:55.158Z,10.48
2023-04-25T06:12:15.964Z,7.90
2023-04-25T06:13:37.053Z,12.48
2023-04-25T06:14:57.909Z,7.15
2023-04-25T06:16:18.811Z,8.23
2023-04-25T06:17:39.933Z,7.55
2023-04-25T06:19:00.641Z,8.77
2023-04-25T06:20:21.880Z,7.70
2023-04-25T06:21:44.697Z,5.20
2023-04-25T06:23:05.673Z,4.78
2023-04-25T06:24:26.996Z,4.95
2023-04-25T06:25:47.990Z,8.10
2023-04-25T06:27:10.372Z,9.20
2023-04-25T06:28:31.254Z,9.25
2023-04-25T06:29:51.916Z,7.00
2023-04-25T06:31:12.992Z,11.30
2023-04-25T06:32:33.830Z,14.52
2023-04-25T06:33:54.569Z,12.30
2023-04-25T06:35:15.738Z,6.45
2023-04-25T06:36:36.396Z,9.40
2023-04-25T06:37:57.288Z,8.23
2023-04-25T06:39:18.358Z,6.53
2023-04-25T06:40:39.309Z,9.90
2023-04-25T06:41:59.972Z,7.95
2023-04-25T06:43:22.119Z,10.93
2023-04-25T06:44:42.668Z,10.55
2023-04-25T06:46:03.625Z,13.05
2023-04-25T06:47:24.759Z,9.70
2023-04-25T06:48:45.543Z,6.32
2023-04-25T06:50:08.246Z,6.68
2023-04-25T06:51:29.154Z,8.68
2023-04-25T06:52:49.785Z,11.25
2023-04-25T06:54:10.715Z,7.05
2023-04-25T06:55:31.526Z,13.88
2023-04-25T06:56:52.526Z,12.45
2023-04-25T06:58:13.076Z,7.82
2023-04-25T06:59:35.323Z,16.33
2023-04-25T07:00:56.290Z,11.45
2023-04-25T07:02:17.565Z,9.38
2023-04-25T07:03:38.567Z,11.85
2023-04-25T07:04:59.581Z,8.32
2023-04-25T07:06:20.322Z,7.65
2023-04-25T07:07:41.210Z,12.23
2023-04-25T07:09:02.115Z,11.75
2023-04-25T07:10:23.108Z,14.20
2023-04-25T07:11:43.720Z,18.05
2023-04-25T07:13:04.547Z,10.25
2023-04-25T07:14:25.613Z,11.07
2023-04-25T07:17:09.032Z,17.83
2023-04-25T07:18:30.168Z,8.85
2023-04-25T07:19:50.843Z,7.30
2023-04-25T07:21:11.696Z,10.38
2023-04-25T07:22:32.873Z,10.68
2023-04-25T07:23:53.744Z,15.57
2023-04-25T07:25:14.614Z,16.10
2023-04-25T07:26:35.688Z,6.00
2023-04-25T07:27:56.336Z,13.43
2023-04-25T07:29:17.372Z,13.60
2023-04-25T07:30:38.191Z,11.65
2023-04-25T07:32:00.396Z,6.68
2023-04-25T07:33:21.151Z,10.52
2023-04-25T07:34:42.060Z,14.95
2023-04-25T07:36:02.909Z,20.35
2023-04-25T07:37:24.036Z,11.90
2023-04-25T07:38:44.679Z,19.35
2023-04-25T07:40:07.215Z,15.43
2023-04-25T07:41:27.816Z,20.38
2023-04-25T07:42:48.839Z,15.95
2023-04-25T07:44:09.512Z,13.70
2023-04-25T07:45:30.603Z,15.20
2023-04-25T07:46:51.510Z,17.50
2023-04-25T07:48:17.514Z,12.95
2023-04-25T07:49:38.439Z,14.07
2023-04-25T07:50:59.353Z,17.00
2023-04-25T07:52:19.989Z,13.95
2023-04-25T07:53:40.743Z,18.98
2023-04-25T07:55:01.667Z,12.13
2023-04-25T07:56:22.874Z,12.35
2023-04-25T07:57:43.719Z,14.32
2023-04-25T07:59:04.673Z,11.05
2023-04-25T08:00:25.929Z,11.73
2023-04-25T08:01:46.509Z,14.43
2023-04-25T08:03:07.545Z,16.58
2023-04-25T08:05:51.301Z,15.73
2023-04-25T08:07:12.206Z,13.80
2023-04-25T08:08:33.077Z,15.75
2023-04-25T08:09:54.688Z,9.95
2023-04-25T08:12:36.137Z,16.75
2023-04-25T08:13:57.185Z,21.00
2023-04-25T08:15:18.171Z,13.50
2023-04-25T08:16:39.411Z,14.00
2023-04-25T08:18:00.119Z,18.98
2023-04-25T08:19:21.019Z,14.35
2023-04-25T08:20:43.056Z,15.85
2023-04-25T08:22:04.482Z,8.63
2023-04-25T08:23:25.161Z,14.25
2023-04-25T08:24:46.119Z,11.73
2023-04-25T08:26:07.329Z,11.88
2023-04-25T08:27:28.305Z,15.02
2023-04-25T08:28:49.329Z,16.13
2023-04-25T08:30:11.166Z,29.65
2023-04-25T08:31:32.436Z,17.00
2023-04-25T08:32:53.568Z,16.13
2023-04-25T08:34:14.666Z,12.57
2023-04-25T08:35:35.584Z,9.73
2023-04-25T08:36:57.686Z,13.57
2023-04-25T08:38:19.248Z,13.30
2023-04-25T08:39:40.240Z,10.32
2023-04-25T08:41:01.658Z,12.57
2023-04-25T08:43:44.247Z,19.70
2023-04-25T08:45:07.272Z,14.68
2023-04-25T08:46:28.780Z,11.20
2023-04-25T08:47:52.481Z,20.00
2023-04-25T08:49:13.939Z,18.58
2023-04-25T08:52:03.212Z,13.18
2023-04-25T08:53:28.764Z,13.32
2023-04-25T08:54:50.528Z,14.32
2023-04-25T08:57:35.343Z,19.40
2023-04-25T08:58:57.077Z,20.23
2023-04-25T09:00:19.322Z,10.60
2023-04-25T09:01:40.410Z,12.57
2023-04-25T09:03:01.670Z,13.38
2023-04-25T09:04:22.734Z,13.63
2023-04-25T09:05:46.630Z,16.13
2023-04-25T09:07:08.444Z,13.70
2023-04-25T09:08:29.674Z,13.35
2023-04-25T09:09:50.744Z,16.20
2023-04-25T09:11:13.279Z,17.70
2023-04-25T09:12:33.777Z,11.23
2023-04-25T09:14:12.994Z,10.45
2023-04-25T09:15:34.075Z,11.98
2023-04-25T09:17:06.298Z,11.93
2023-04-25T09:18:30.604Z,7.80
2023-04-25T09:19:52.302Z,9.30
2023-04-25T09:21:14.939Z,10.32
2023-04-25T09:22:38.025Z,11.63
2023-04-25T09:23:59.036Z,13.88
2023-04-25T09:25:20.526Z,9.73
2023-04-25T09:26:41.309Z,12.60
2023-04-25T09:28:06.007Z,14.57
2023-04-25T09:29:34.793Z,12.13
2023-04-25T09:30:57.875Z,16.70
2023-04-25T09:32:21.207Z,16.25
2023-04-25T09:33:42.469Z,14.38
2023-04-25T09:35:03.935Z,14.88
2023-04-25T09:36:28.439Z,14.70
2023-04-25T09:37:52.123Z,16.33
2023-04-25T09:39:14.112Z,10.32
2023-04-25T09:40:34.982Z,10.52
2023-04-25T09:41:56.133Z,12.10
2023-04-25T09:43:24.602Z,16.38
2023-04-25T09:44:46.524Z,14.88
2023-04-25T09:46:10.702Z,13.65
2023-04-25T09:47:31.541Z,12.02
2023-04-25T09:48:52.744Z,11.57
2023-04-25T09:50:18.267Z,14.70
2023-04-25T09:51:39.202Z,18.83
2023-04-25T09:53:07.243Z,11.57
2023-04-25T09:54:28.222Z,18.63
2023-04-25T09:55:49.130Z,9.32
2023-04-25T09:57:13.827Z,16.15
2023-04-25T09:58:35.808Z,13.38
2023-04-25T09:59:57.233Z,19.35
2023-04-25T10:01:18.247Z,18.13
2023-04-25T10:02:43.242Z,9.50
2023-04-25T10:04:06.974Z,15.38
2023-04-25T10:05:30.859Z,18.85
2023-04-25T10:06:53.728Z,13.02
2023-04-25T10:08:16.681Z,13.35
2023-04-25T10:09:39.676Z,16.63
2023-04-25T10:11:02.558Z,13.73
2023-04-25T10:12:23.879Z,12.85
2023-04-25T10:13:45.389Z,13.48
2023-04-25T10:15:09.268Z,16.52
2023-04-25T10:16:30.542Z,15.18
2023-04-25T10:17:52.667Z,13.25
2023-04-25T10:19:13.974Z,17.40
2023-04-25T10:20:35.056Z,17.15
2023-04-25T10:22:08.843Z,16.42
2023-04-25T10:23:32.658Z,12.95
2023-04-25T10:24:53.947Z,14.15
2023-04-25T10:26:14.634Z,15.75
2023-04-25T10:27:36.256Z,13.25
2023-04-25T10:30:19.731Z,12.10
2023-04-25T10:31:47.461Z,11.27
2023-04-25T10:33:18.756Z,14.70
2023-04-25T10:34:41.565Z,15.63
2023-04-25T10:36:11.962Z,21.23
2023-04-25T10:37:32.763Z,20.80
2023-04-25T10:38:55.405Z,20.00
2023-04-25T10:40:23.305Z,21.08
2023-04-25T10:41:54.859Z,15.55
2023-04-25T10:43:39.332Z,14.02
2023-04-25T10:45:05.773Z,13.88
2023-04-25T10:46:28.194Z,15.75
2023-04-25T10:47:48.888Z,23.20
2023-04-25T10:49:09.883Z,15.35
2023-04-25T10:50:39.290Z,14.15
2023-04-25T10:52:18.040Z,14.00
2023-04-25T10:53:38.985Z,11.90
2023-04-25T10:55:03.419Z,9.68
2023-04-25T10:56:26.834Z,13.07
2023-04-25T10:57:47.533Z,12.38
2023-04-25T10:59:11.230Z,17.05
2023-04-25T11:00:38.547Z,13.25
2023-04-25T11:02:13.188Z,19.63
2023-04-25T11:03:39.079Z,15.77
2023-04-25T11:05:00.618Z,13.80
2023-04-25T11:06:27.947Z,13.45
2023-04-25T11:08:03.970Z,13.43
2023-04-25T11:09:28.335Z,12.88
2023-04-25T11:10:51.673Z,8.70
2023-04-25T11:12:13.252Z,14.00
2023-04-25T11:13:34.256Z,8.63
2023-04-25T11:15:00.828Z,14.80
2023-04-25T11:16:28.241Z,13.45
2023-04-25T11:17:52.007Z,8.88
2023-04-25T11:19:12.736Z,12.60
2023-04-25T11:20:33.816Z,16.50
2023-04-25T11:21:56.413Z,12.02
2023-04-25T11:23:17.147Z,14.90
2023-04-25T11:24:38.116Z,12.98
2023-04-25T11:26:00.129Z,14.52
2023-04-25T11:27:21.577Z,14.27
2023-04-25T11:28:46.321Z,9.23
2023-04-25T11:30:15.429Z,10.25
2023-04-25T11:31:36.466Z,13.90
2023-04-25T11:32:57.218Z,8.38
2023-04-25T11:34:19.079Z,6.63
2023-04-25T11:35:41.956Z,10.85
2023-04-25T11:37:04.098Z,14.88
2023-04-25T11:38:27.355Z,17.10
2023-04-25T11:39:49.433Z,9.70
2023-04-25T11:41:11.795Z,10.27
2023-04-25T11:42:32.388Z,14.18
2023-04-25T11:43:53.593Z,14.32
2023-04-25T11:45:15.584Z,13.13
2023-04-25T11:46:36.693Z,11.88
2023-04-25T11:47:57.482Z,11.77
2023-04-25T11:49:18.283Z,12.98
2023-04-25T11:50:40.508Z,14.45
2023-04-25T11:52:01.057Z,11.05
2023-04-25T11:53:21.918Z,13.57
2023-04-25T11:54:45.277Z,12.98
2023-04-25T11:56:12.341Z,10.15
2023-04-25T11:57:33.321Z,14.40
2023-04-25T11:58:58.766Z,11.27
2023-04-25T12:00:22.201Z,14.95
2023-04-25T12:01:50.794Z,11.70
2023-04-25T12:03:12.152Z,13.85
2023-04-25T12:05:54.028Z,15.10
2023-04-25T12:07:15.288Z,10.68
2023-04-25T12:08:36.134Z,11.88
2023-04-25T12:09:56.916Z,13.80
2023-04-25T12:11:23.379Z,17.13
2023-04-25T12:12:46.580Z,12.95
2023-04-25T12:14:07.520Z,10.57
2023-04-25T12:15:28.341Z,9.30
2023-04-25T12:16:50.205Z,13.57
2023-04-25T12:18:10.976Z,10.05
2023-04-25T12:19:34.661Z,17.33
2023-04-25T12:20:55.807Z,8.80
2023-04-25T12:22:22.356Z,17.02
2023-04-25T12:23:42.998Z,15.63
2023-04-25T12:25:04.328Z,13.25
2023-04-25T12:26:26.566Z,16.00
2023-04-25T12:27:47.395Z,10.10
2023-04-25T12:29:17.822Z,11.57
2023-04-25T12:30:57.121Z,13.95
2023-04-25T12:32:18.165Z,15.10
2023-04-25T12:33:39.171Z,11.60
2023-04-25T12:35:00.258Z,16.02
2023-04-25T12:36:20.886Z,11.18
2023-04-25T12:37:41.926Z,12.82
2023-04-25T12:39:02.685Z,12.87
2023-04-25T12:40:23.590Z,7.70
2023-04-25T12:41:45.640Z,14.15
2023-04-25T12:43:06.143Z,14.73
2023-04-25T12:44:27.676Z,10.77
2023-04-25T12:45:49.453Z,12.50
2023-04-25T12:47:10.850Z,9.57
2023-04-25T12:48:31.437Z,8.65
2023-04-25T12:49:52.316Z,10.55
2023-04-25T12:51:13.280Z,14.18
2023-04-25T12:52:34.257Z,9.45
2023-04-25T12:53:54.986Z,9.97
2023-04-25T12:55:16.795Z,10.88
2023-04-25T12:56:37.463Z,13.85
2023-04-25T12:57:59.765Z,11.27
2023-04-25T12:59:20.590Z,10.52
2023-04-25T13:00:41.728Z,14.40
2023-04-25T13:02:02.458Z,7.87
2023-04-25T13:03:23.608Z,10.80
2023-04-25T13:04:44.219Z,9.52
2023-04-25T13:06:06.252Z,7.00
2023-04-25T13:07:26.788Z,11.57
2023-04-25T13:08:47.826Z,11.68
2023-04-25T13:10:09.203Z,13.07
2023-04-25T13:12:51.305Z,16.73
2023-04-25T13:14:13.373Z,11.87
2023-04-25T13:15:34.213Z,10.85
2023-04-25T13:16:55.305Z,11.57
2023-04-25T13:18:16.567Z,12.10
2023-04-25T13:19:37.465Z,14.10
2023-04-25T13:20:59.130Z,13.85
2023-04-25T13:23:41.451Z,11.13
2023-04-25T13:25:01.951Z,9.98
2023-04-25T13:26:22.920Z,11.52
2023-04-25T13:27:43.937Z,14.57
2023-04-25T13:29:04.896Z,10.45
2023-04-25T13:30:27.002Z,13.55
2023-04-25T13:31:48.004Z,14.82
2023-04-25T13:33:08.857Z,9.30
2023-04-25T13:34:30.055Z,15.70
2023-04-25T13:35:51.057Z,7.60
2023-04-25T13:37:11.772Z,14.88
2023-04-25T13:38:32.682Z,12.90
2023-04-25T13:39:53.612Z,11.82
2023-04-25T13:41:14.247Z,14.23
2023-04-25T13:42:35.094Z,16.52
2023-04-25T13:43:58.648Z,16.37
2023-04-25T13:45:19.976Z,10.55
2023-04-25T13:46:46.974Z,14.07
2023-04-25T13:48:08.455Z,17.15
2023-04-25T13:49:29.330Z,11.52
2023-04-25T13:50:50.148Z,9.88
2023-04-25T13:52:10.813Z,10.82
2023-04-25T13:53:31.828Z,13.40
2023-04-25T13:54:52.613Z,12.23
2023-04-25T13:56:13.447Z,9.68
2023-04-25T13:57:34.473Z,15.52
2023-04-25T13:58:58.296Z,10.63
2023-04-25T14:00:19.539Z,14.05
2023-04-25T14:03:02.617Z,9.88
2023-04-25T14:04:23.694Z,9.80
2023-04-25T14:05:44.641Z,11.95
2023-04-25T14:07:05.634Z,7.63
2023-04-25T14:08:29.754Z,13.32
2023-04-25T14:11:11.138Z,11.05
2023-04-25T14:12:33.124Z,10.07
2023-04-25T14:13:56.164Z,11.50
2023-04-25T14:15:17.091Z,9.45
2023-04-25T14:16:37.688Z,14.52
2023-04-25T14:17:58.663Z,12.95
2023-04-25T14:19:22.304Z,12.43
2023-04-25T14:20:43.433Z,10.73
2023-04-25T14:22:04.558Z,10.70
2023-04-25T14:23:25.546Z,9.70
2023-04-25T14:24:46.031Z,9.65
2023-04-25T14:26:06.747Z,11.43
2023-04-25T14:27:29.166Z,8.98
2023-04-25T14:28:50.942Z,9.90
2023-04-25T14:30:12.743Z,8.60
2023-04-25T14:31:34.595Z,7.30
2023-04-25T14:32:55.788Z,9.75
2023-04-25T14:34:16.398Z,6.65
2023-04-25T14:35:38.591Z,8.48
2023-04-25T14:36:59.156Z,10.50
2023-04-25T14:38:19.949Z,8.02
2023-04-25T14:39:40.544Z,7.72
2023-04-25T14:41:01.358Z,7.40
2023-04-25T14:42:22.224Z,12.02
2023-04-25T14:43:43.225Z,13.75
2023-04-25T14:45:05.049Z,7.13
2023-04-25T14:46:26.202Z,12.20
2023-04-25T14:47:47.246Z,7.75
2023-04-25T14:49:09.408Z,6.78
2023-04-25T14:50:30.440Z,9.90
2023-04-25T14:51:52.542Z,8.82
2023-04-25T14:53:13.266Z,12.30
2023-04-25T14:54:34.285Z,11.23
2023-04-25T14:55:54.991Z,15.00
2023-04-25T14:57:20.554Z,9.43
2023-04-25T14:58:41.868Z,12.18
2023-04-25T15:00:03.576Z,14.68
2023-04-25T15:01:25.818Z,9.90
2023-04-25T15:02:46.654Z,13.85
2023-04-25T15:04:07.561Z,9.43
2023-04-25T15:05:28.685Z,11.10
2023-04-25T15:06:49.295Z,13.50
2023-04-25T15:08:11.563Z,12.05
2023-04-25T15:09:32.027Z,13.50
2023-04-25T15:10:52.940Z,16.90
2023-04-25T15:12:13.697Z,18.70
2023-04-25T15:13:34.584Z,11.18
2023-04-25T15:14:58.002Z,13.88
2023-04-25T15:16:19.453Z,10.75
2023-04-25T15:17:42.322Z,18.25
2023-04-25T15:19:03.267Z,14.45
2023-04-25T15:20:24.381Z,13.05
2023-04-25T15:21:45.371Z,10.45
2023-04-25T15:23:06.258Z,17.13
2023-04-25T15:24:28.080Z,12.30
2023-04-25T15:25:50.666Z,8.85
2023-04-25T15:27:11.577Z,10.23
2023-04-25T15:28:32.393Z,15.15
2023-04-25T15:29:53.040Z,15.87
2023-04-25T15:31:13.795Z,8.70
2023-04-25T15:32:34.709Z,13.75
2023-04-25T15:33:55.763Z,10.85
2023-04-25T15:35:16.477Z,18.93
2023-04-25T15:36:37.287Z,10.90
2023-04-25T15:37:58.074Z,10.05
2023-04-25T15:39:18.883Z,14.35
2023-04-25T15:40:41.740Z,13.95
2023-04-25T15:42:02.382Z,8.60
2023-04-25T15:43:23.198Z,13.05
2023-04-25T15:44:44.248Z,13.95
2023-04-25T15:46:05.270Z,18.77
2023-04-25T15:47:29.163Z,10.30
2023-04-25T15:48:49.631Z,8.48
2023-04-25T15:50:11.881Z,9.38
2023-04-25T15:51:32.475Z,15.20
2023-04-25T15:52:53.388Z,8.82
2023-04-25T15:54:14.372Z,10.82
2023-04-25T15:55:35.527Z,9.98
2023-04-25T15:56:57.609Z,14.10
2023-04-25T15:58:18.582Z,8.50
2023-04-25T15:59:39.353Z,8.90
2023-04-25T16:01:00.422Z,11.00
2023-04-25T16:02:21.434Z,11.45
2023-04-25T16:03:42.255Z,7.03
2023-04-25T16:05:03.046Z,8.30
2023-04-25T16:06:24.073Z,9.68
2023-04-25T16:07:46.183Z,10.30
2023-04-25T16:09:07.000Z,10.88
2023-04-25T16:10:28.009Z,13.13
2023-04-25T16:11:48.921Z,9.32
2023-04-25T16:13:11.513Z,21.02
2023-04-25T16:14:33.019Z,11.50
2023-04-25T16:17:14.176Z,9.48
2023-04-25T16:18:34.936Z,13.30
2023-04-25T16:19:56.127Z,13.70
2023-04-25T16:21:17.351Z,15.27
2023-04-25T16:24:10.528Z,10.68
2023-04-25T16:25:31.634Z,12.77
2023-04-25T16:26:52.549Z,13.07
2023-04-25T16:28:14.565Z,11.43
2023-04-25T16:29:35.249Z,20.25
2023-04-25T16:30:56.705Z,23.48
2023-04-25T16:32:17.288Z,14.65
2023-04-25T16:33:38.408Z,11.65
2023-04-25T16:34:59.173Z,9.48
2023-04-25T16:36:19.651Z,9.68
2023-04-25T16:37:40.352Z,11.27
2023-04-25T16:39:01.283Z,11.02
2023-04-25T16:40:22.337Z,9.82
2023-04-25T16:41:42.873Z,11.15
2023-04-25T16:43:03.740Z,7.15
2023-04-25T16:44:25.922Z,12.48
2023-04-25T16:45:46.802Z,14.35
2023-04-25T16:47:07.821Z,11.05
2023-04-25T16:48:28.752Z,13.85
2023-04-25T16:49:49.612Z,9.15
2023-04-25T16:51:10.292Z,9.50
2023-04-25T16:52:31.163Z,10.80
2023-04-25T16:53:52.119Z,10.32
2023-04-25T16:55:13.123Z,10.93
2023-04-25T16:56:34.223Z,8.32
2023-04-25T16:58:01.143Z,12.82
2023-04-25T16:59:21.957Z,10.10
2023-04-25T17:00:44.506Z,8.35
2023-04-25T17:02:05.263Z,9.45
2023-04-25T17:03:26.140Z,17.90
2023-04-25T17:04:46.869Z,21.77
2023-04-25T17:06:07.720Z,9.93
2023-04-25T17:07:28.399Z,15.02
2023-04-25T17:08:49.532Z,11.13
2023-04-25T17:10:11.080Z,11.88
2023-04-25T17:11:32.420Z,11.82
2023-04-25T17:12:53.296Z,10.65
2023-04-25T17:14:14.396Z,16.10
2023-04-25T17:15:35.279Z,11.50
2023-04-25T17:16:57.341Z,14.25
2023-04-25T17:18:18.330Z,11.75
2023-04-25T17:19:39.343Z,14.48
2023-04-25T17:21:00.068Z,15.07
2023-04-25T17:22:21.490Z,13.53
2023-04-25T17:23:43.257Z,13.02
2023-04-25T17:25:05.360Z,14.38
2023-04-25T17:26:28.789Z,13.82
2023-04-25T17:27:49.711Z,9.52
2023-04-25T17:29:10.450Z,14.32
2023-04-25T17:30:31.733Z,12.27
2023-04-25T17:31:52.580Z,11.65
2023-04-25T17:33:14.799Z,18.23
2023-04-25T17:34:35.487Z,14.70
2023-04-25T17:35:56.333Z,17.80
2023-04-25T17:37:16.866Z,15.80
2023-04-25T17:38:37.860Z,12.80
2023-04-25T17:39:58.538Z,21.88
2023-04-25T17:41:19.435Z,20.20
2023-04-25T17:42:40.386Z,10.90
2023-04-25T17:44:01.204Z,16.50
2023-04-25T17:45:22.096Z,12.33
2023-04-25T17:46:42.755Z,17.55
2023-04-25T17:48:03.993Z,26.50
2023-04-25T17:49:26.053Z,18.83
2023-04-25T17:50:47.042Z,17.88
2023-04-25T17:52:08.302Z,13.68
2023-04-25T17:53:28.908Z,13.60
2023-04-25T17:54:49.857Z,14.10
2023-04-25T17:56:25.430Z,12.35
2023-04-25T17:57:47.543Z,10.40
2023-04-25T17:59:08.215Z,10.00
2023-04-25T18:00:29.117Z,13.82
2023-04-25T18:01:50.403Z,19.60
2023-04-25T18:03:11.355Z,14.27
2023-04-25T18:04:33.371Z,12.68